createdAt,value
2022-09-05T00:00:11.418Z,20
2022-09-05T00:01:28.237Z,20
2022-09-05T00:02:32.614Z,20
2022-09-05T00:03:36.431Z,20
2022-09-05T00:04:40.228Z,20
2022-09-05T00:06:04.053Z,20
2022-09-05T00:07:07.982Z,20
2022-09-05T00:08:10.797Z,20
2022-09-05T00:09:15.357Z,20
2022-09-05T00:11:43.798Z,20
2022-09-05T00:12:47.369Z,20
2022-09-05T00:14:10.159Z,20
2022-09-05T00:15:19.804Z,20
2022-09-05T00:16:22.890Z,20
2022-09-05T00:26:36.641Z,20
2022-09-05T00:27:52.814Z,19.9
2022-09-05T00:28:55.973Z,20
2022-09-05T00:31:57.520Z,19.9
2022-09-05T00:33:01.716Z,19.9
2022-09-05T00:34:20.588Z,19.9
2022-09-05T00:35:26.781Z,19.9
2022-09-05T00:36:29.924Z,19.9
2022-09-05T00:37:32.712Z,19.9
2022-09-05T00:38:37.766Z,19.9
2022-09-05T00:40:19.060Z,19.8
2022-09-05T00:41:22.956Z,19.8
2022-09-05T00:42:25.744Z,19.8
2022-09-05T00:43:29.168Z,19.8
2022-09-05T00:44:31.752Z,19.8
2022-09-05T00:45:35.387Z,19.8
2022-09-05T00:46:38.436Z,19.8
2022-09-05T00:47:48.974Z,19.8
2022-09-05T00:48:53.154Z,19.8
2022-09-05T00:49:56.005Z,19.8
2022-09-05T00:50:59.471Z,19.8
2022-09-05T00:52:02.063Z,19.8
2022-09-05T00:53:08.691Z,19.8
2022-09-05T00:54:24.805Z,19.8
2022-09-05T00:55:44.945Z,19.8
2022-09-05T00:56:51.576Z,19.8
2022-09-05T00:57:54.653Z,19.7
2022-09-05T00:58:57.597Z,19.8
2022-09-05T01:00:00.171Z,19.8
2022-09-05T01:01:22.240Z,19.8
2022-09-05T01:02:26.110Z,19.8
2022-09-05T01:03:29.834Z,19.7
2022-09-05T01:04:32.428Z,19.8
2022-09-05T01:05:35.605Z,19.8
2022-09-05T01:06:38.394Z,19.8
2022-09-05T01:07:47.566Z,19.7
2022-09-05T01:08:50.999Z,19.7
2022-09-05T01:09:53.074Z,19.7
2022-09-05T01:10:55.677Z,19.7
2022-09-05T01:11:58.731Z,19.7
2022-09-05T01:13:01.519Z,19.7
2022-09-05T01:14:13.557Z,19.7
2022-09-05T01:15:16.903Z,19.7
2022-09-05T01:16:20.058Z,19.7
2022-09-05T01:17:23.812Z,19.7
2022-09-05T01:18:26.681Z,19.7
2022-09-05T01:19:29.761Z,19.7
2022-09-05T01:20:38.835Z,19.7
2022-09-05T01:21:48.917Z,19.7
2022-09-05T01:22:51.471Z,19.7
2022-09-05T01:23:54.618Z,19.6
2022-09-05T01:24:57.292Z,19.7
2022-09-05T01:26:00.004Z,19.6
2022-09-05T01:27:03.160Z,19.6
2022-09-05T01:29:20.185Z,19.6
2022-09-05T01:30:33.483Z,19.6
2022-09-05T01:31:36.699Z,19.6
2022-09-05T01:32:39.264Z,19.6
2022-09-05T01:33:41.942Z,19.5
2022-09-05T01:34:44.725Z,19.5
2022-09-05T01:36:05.112Z,19.5
2022-09-05T01:37:33.221Z,19.5
2022-09-05T01:38:36.899Z,19.5
2022-09-05T01:40:17.467Z,19.5
2022-09-05T01:41:21.275Z,19.5
2022-09-05T01:42:24.138Z,19.5
2022-09-05T01:43:27.308Z,19.5
2022-09-05T01:44:30.825Z,19.5
2022-09-05T01:45:40.972Z,19.5
2022-09-05T01:46:49.093Z,19.5
2022-09-05T01:47:52.810Z,19.5
2022-09-05T01:48:59.516Z,19.5
2022-09-05T01:50:02.668Z,19.4
2022-09-05T01:51:32.376Z,19.4
2022-09-05T01:52:35.731Z,19.4
2022-09-05T01:54:27.032Z,19.4
2022-09-05T01:56:10.379Z,19.4
2022-09-05T01:57:20.352Z,19.4
2022-09-05T01:58:23.140Z,19.4
2022-09-05T01:59:26.290Z,19.4
2022-09-05T02:00:29.005Z,19.4
2022-09-05T02:01:34.166Z,19.4
2022-09-05T02:02:37.787Z,19.4
2022-09-05T02:03:42.006Z,19.4
2022-09-05T02:04:44.611Z,19.4
2022-09-05T02:05:50.004Z,19.4
2022-09-05T02:06:52.783Z,19.4
2022-09-05T02:07:55.580Z,19.4
2022-09-05T02:08:58.010Z,19.4
2022-09-05T02:10:08.382Z,19.4
2022-09-05T02:11:12.305Z,19.4
2022-09-05T02:12:15.194Z,19.4
2022-09-05T02:13:18.260Z,19.4
2022-09-05T02:14:34.887Z,19.4
2022-09-05T02:15:38.608Z,19.4
2022-09-05T02:16:41.398Z,19.3
2022-09-05T02:17:52.349Z,19.4
2022-09-05T02:18:55.081Z,19.4
2022-09-05T02:19:58.232Z,19.3
2022-09-05T02:21:01.373Z,19.3
2022-09-05T02:22:03.779Z,19.3
2022-09-05T02:23:43.467Z,19.3
2022-09-05T02:24:49.544Z,19.3
2022-09-05T02:27:05.494Z,19.3
2022-09-05T02:28:08.644Z,19.3
2022-09-05T02:29:28.358Z,19.3
2022-09-05T02:30:32.599Z,19.3
2022-09-05T02:31:35.578Z,19.3
2022-09-05T02:32:44.028Z,19.3
2022-09-05T02:33:47.193Z,19.3
2022-09-05T02:34:50.040Z,19.3
2022-09-05T02:35:53.429Z,19.3
2022-09-05T02:36:56.761Z,19.3
2022-09-05T02:45:26.441Z,19.3
2022-09-05T02:46:34.354Z,19.3
2022-09-05T02:47:38.318Z,19.3
2022-09-05T02:48:40.825Z,19.3
2022-09-05T02:58:05.130Z,19.3
2022-09-05T02:59:18.744Z,19.2
2022-09-05T03:00:39.459Z,19.2
2022-09-05T03:01:43.180Z,19.2
2022-09-05T03:02:45.965Z,19.2
2022-09-05T03:03:48.669Z,19.1
2022-09-05T03:05:05.347Z,19.2
2022-09-05T03:06:09.043Z,19.2
2022-09-05T03:07:12.114Z,19.2
2022-09-05T03:08:15.266Z,19.1
2022-09-05T03:09:18.733Z,19.2
2022-09-05T03:10:55.602Z,19.1
2022-09-05T03:12:29.894Z,19.1
2022-09-05T03:13:33.295Z,19.1
2022-09-05T03:14:36.517Z,19.1
2022-09-05T03:15:39.977Z,19.1
2022-09-05T03:16:48.797Z,19.1
2022-09-05T03:17:51.271Z,19.1
2022-09-05T03:18:55.016Z,19.1
2022-09-05T03:19:57.687Z,19.1
2022-09-05T03:21:10.487Z,19
2022-09-05T03:22:13.828Z,19
2022-09-05T03:23:16.622Z,19
2022-09-05T03:24:19.604Z,19
2022-09-05T03:25:22.474Z,19
2022-09-05T03:26:25.348Z,19
2022-09-05T03:27:30.324Z,19
2022-09-05T03:28:33.287Z,19
2022-09-05T03:29:35.530Z,19
2022-09-05T03:30:38.946Z,19
2022-09-05T03:31:42.003Z,19
2022-09-05T03:32:45.149Z,19
2022-09-05T03:33:47.954Z,18.9
2022-09-05T03:34:51.681Z,19
2022-09-05T03:35:54.677Z,18.9
2022-09-05T03:36:57.269Z,18.9
2022-09-05T03:38:00.676Z,18.9
2022-09-05T03:39:03.676Z,18.9
2022-09-05T03:40:17.484Z,18.9
2022-09-05T03:41:41.020Z,18.9
2022-09-05T03:42:45.822Z,18.9
2022-09-05T03:43:48.543Z,18.9
2022-09-05T03:44:51.988Z,18.9
2022-09-05T03:45:55.397Z,18.9
2022-09-05T03:46:58.583Z,18.9
2022-09-05T03:48:29.933Z,18.8
2022-09-05T03:57:41.330Z,18.8
2022-09-05T03:59:01.952Z,18.8
2022-09-05T04:00:06.841Z,18.7
2022-09-05T04:08:36.771Z,18.7
2022-09-05T04:09:53.077Z,18.7
2022-09-05T04:10:56.939Z,18.7
2022-09-05T04:12:04.109Z,18.7
2022-09-05T04:13:06.624Z,18.7
2022-09-05T04:14:10.059Z,18.7
2022-09-05T04:15:13.211Z,18.7
2022-09-05T04:16:16.182Z,18.7
2022-09-05T04:17:19.340Z,18.7
2022-09-05T04:18:34.577Z,18.7
2022-09-05T04:19:39.173Z,18.7
2022-09-05T04:20:42.050Z,18.7
2022-09-05T04:21:44.915Z,18.6
2022-09-05T04:22:48.068Z,18.6
2022-09-05T04:23:51.131Z,18.6
2022-09-05T04:24:54.283Z,18.6
2022-09-05T04:26:12.967Z,18.7
2022-09-05T04:27:15.759Z,18.6
2022-09-05T04:28:18.757Z,18.6
2022-09-05T04:29:22.202Z,18.6
2022-09-05T04:30:40.998Z,18.6
2022-09-05T04:31:44.139Z,18.6
2022-09-05T04:33:37.350Z,18.6
2022-09-05T04:34:40.164Z,18.6
2022-09-05T04:35:43.316Z,18.6
2022-09-05T04:36:46.448Z,18.6
2022-09-05T04:37:50.154Z,18.6
2022-09-05T04:38:53.029Z,18.6
2022-09-05T04:39:56.437Z,18.6
2022-09-05T04:40:59.306Z,18.6
2022-09-05T04:42:02.443Z,18.6
2022-09-05T04:43:05.320Z,18.6
2022-09-05T04:44:08.100Z,18.6
2022-09-05T04:45:10.696Z,18.6
2022-09-05T04:46:20.018Z,18.6
2022-09-05T04:47:25.266Z,18.5
2022-09-05T04:48:31.384Z,18.5
2022-09-05T04:49:33.998Z,18.5
2022-09-05T04:50:39.109Z,18.5
2022-09-05T04:51:44.955Z,18.5
2022-09-05T04:53:07.714Z,18.5
2022-09-05T04:54:11.053Z,18.5
2022-09-05T04:55:14.125Z,18.5
2022-09-05T04:56:17.291Z,18.5
2022-09-05T04:57:20.361Z,18.5
2022-09-05T05:05:59.118Z,18.5
2022-09-05T05:07:51.136Z,18.5
2022-09-05T05:08:55.012Z,18.4
2022-09-05T05:18:39.134Z,18.4
2022-09-05T05:20:44.593Z,18.5
2022-09-05T05:21:47.568Z,18.5
2022-09-05T05:22:51.151Z,18.5
2022-09-05T05:23:54.880Z,18.5
2022-09-05T05:24:57.951Z,18.5
2022-09-05T05:26:01.105Z,18.6
2022-09-05T05:27:04.242Z,18.5
2022-09-05T05:28:25.321Z,18.5
2022-09-05T05:29:29.947Z,18.5
2022-09-05T05:30:32.740Z,18.5
2022-09-05T05:31:35.562Z,18.5
2022-09-05T05:32:47.327Z,18.5
2022-09-05T05:33:50.313Z,18.5
2022-09-05T05:34:52.835Z,18.5
2022-09-05T05:35:55.985Z,18.6
2022-09-05T05:37:01.444Z,18.5
2022-09-05T05:38:04.311Z,18.5
2022-09-05T05:39:07.745Z,18.5
2022-09-05T05:40:10.367Z,18.5
2022-09-05T05:41:13.849Z,18.5
2022-09-05T05:42:22.161Z,18.5
2022-09-05T05:43:24.480Z,18.5
2022-09-05T05:44:27.918Z,18.5
2022-09-05T05:45:31.095Z,18.5
2022-09-05T05:46:34.715Z,18.5
2022-09-05T05:47:37.470Z,18.6
2022-09-05T05:48:48.462Z,18.6
2022-09-05T05:50:00.819Z,18.6
2022-09-05T05:51:03.132Z,18.6
2022-09-05T05:52:06.290Z,18.6
2022-09-05T05:53:09.629Z,18.6
2022-09-05T05:55:53.612Z,18.6
2022-09-05T05:56:57.024Z,18.6
2022-09-05T05:58:00.291Z,18.7
2022-09-05T05:59:03.717Z,18.7
2022-09-05T06:00:07.101Z,18.7
2022-09-05T06:01:39.636Z,18.7
2022-09-05T06:02:43.608Z,18.8
2022-09-05T06:03:47.250Z,18.8
2022-09-05T06:04:50.928Z,18.7
2022-09-05T06:05:56.087Z,18.8
2022-09-05T06:06:58.963Z,18.8
2022-09-05T06:15:11.479Z,18.8
2022-09-05T06:16:29.559Z,18.8
2022-09-05T06:17:32.998Z,18.9
2022-09-05T06:18:36.074Z,19
2022-09-05T06:22:16.912Z,19
2022-09-05T06:23:40.651Z,19
2022-09-05T06:24:45.301Z,19.1
2022-09-05T06:25:48.097Z,19.2
2022-09-05T06:26:50.419Z,19.2
2022-09-05T06:28:20.711Z,19.2
2022-09-05T06:29:23.511Z,19.2
2022-09-05T06:30:41.773Z,19.2
2022-09-05T06:31:45.009Z,19.3
2022-09-05T06:32:59.277Z,19.3
2022-09-05T06:34:02.144Z,19.3
2022-09-05T06:35:04.945Z,19.3
2022-09-05T06:36:07.779Z,19.4
2022-09-05T06:37:10.935Z,19.4
2022-09-05T06:38:14.437Z,19.4
2022-09-05T06:39:17.293Z,19.4
2022-09-05T06:40:20.148Z,19.4
2022-09-05T06:41:23.571Z,19.5
2022-09-05T06:42:44.759Z,19.5
2022-09-05T06:43:47.556Z,19.5
2022-09-05T06:44:51.266Z,19.5
2022-09-05T06:47:34.714Z,19.5
2022-09-05T06:49:37.546Z,19.6
2022-09-05T06:51:09.506Z,19.6
2022-09-05T06:52:30.968Z,19.7
2022-09-05T06:53:34.613Z,19.7
2022-09-05T06:54:47.446Z,19.7
2022-09-05T06:56:03.810Z,19.7
2022-09-05T06:57:08.053Z,19.7
2022-09-05T06:58:10.915Z,19.8
2022-09-05T06:59:13.226Z,19.8
2022-09-05T07:00:23.430Z,19.8
2022-09-05T07:02:01.839Z,19.9
2022-09-05T07:03:08.783Z,19.9
2022-09-05T07:05:44.459Z,19.9
2022-09-05T07:07:07.149Z,20
2022-09-05T07:08:37.782Z,20.1
2022-09-05T07:09:40.286Z,20.1
2022-09-05T07:10:43.635Z,20.1
2022-09-05T07:11:46.716Z,20.1
2022-09-05T07:12:49.402Z,20.2
2022-09-05T07:13:52.194Z,20.2
2022-09-05T07:15:09.285Z,20.3
2022-09-05T07:16:12.450Z,20.3
2022-09-05T07:17:15.931Z,20.3
2022-09-05T07:18:19.174Z,20.4
2022-09-05T07:19:22.614Z,20.4
2022-09-05T07:20:25.514Z,20.4
2022-09-05T07:21:28.458Z,20.5
2022-09-05T07:22:49.943Z,20.5
2022-09-05T07:24:11.634Z,20.5
2022-09-05T07:25:57.620Z,20.5
2022-09-05T07:27:02.628Z,20.6
2022-09-05T07:28:30.899Z,20.7
2022-09-05T07:29:33.899Z,20.7
2022-09-05T07:30:37.344Z,20.8
2022-09-05T07:31:40.316Z,20.8
2022-09-05T07:32:42.686Z,20.8
2022-09-05T07:33:44.928Z,20.9
2022-09-05T07:34:47.527Z,20.9
2022-09-05T07:35:50.671Z,20.9
2022-09-05T07:37:16.819Z,21
2022-09-05T07:38:19.613Z,21
2022-09-05T07:39:30.109Z,21.1
2022-09-05T07:40:33.202Z,21.1
2022-09-05T07:41:36.234Z,21.1
2022-09-05T07:42:39.100Z,21.1
2022-09-05T07:43:41.974Z,21.2
2022-09-05T07:44:44.869Z,21.2
2022-09-05T07:45:56.853Z,21.2
2022-09-05T07:47:00.239Z,21.3
2022-09-05T07:48:03.399Z,21.3
2022-09-05T07:49:06.454Z,21.3
2022-09-05T07:57:30.593Z,21.3
2022-09-05T07:58:58.591Z,21.4
2022-09-05T08:00:01.472Z,21.8
2022-09-05T08:01:05.456Z,21.8
2022-09-05T08:02:08.686Z,21.8
2022-09-05T08:03:11.846Z,21.9
2022-09-05T08:04:14.997Z,21.9
2022-09-05T08:05:35.965Z,21.9
2022-09-05T08:07:52.154Z,22
2022-09-05T08:10:09.954Z,22.1
2022-09-05T08:11:28.099Z,22.1
2022-09-05T08:13:27.880Z,22.1
2022-09-05T08:14:46.395Z,22.1
2022-09-05T08:16:14.781Z,22.2
2022-09-05T08:17:18.662Z,22.2
2022-09-05T08:18:22.087Z,22.2
2022-09-05T08:19:24.951Z,22.2
2022-09-05T08:20:28.098Z,22.2
2022-09-05T08:21:31.329Z,22.2
2022-09-05T08:22:53.120Z,22.3
2022-09-05T08:23:56.391Z,22.3
2022-09-05T08:24:59.524Z,22.4
2022-09-05T08:26:02.425Z,22.4
2022-09-05T08:27:10.808Z,22.4
2022-09-05T08:28:19.455Z,22.4
2022-09-05T08:29:23.221Z,22.4
2022-09-05T08:30:29.196Z,22.4
2022-09-05T08:31:32.182Z,22.4
2022-09-05T08:32:43.834Z,22.4
2022-09-05T08:33:47.197Z,22.5
2022-09-05T08:34:50.351Z,22.5
2022-09-05T08:36:02.153Z,22.5
2022-09-05T08:37:05.577Z,22.5
2022-09-05T08:38:10.244Z,22.6
2022-09-05T08:39:13.432Z,22.6
2022-09-05T08:40:16.660Z,22.6
2022-09-05T08:41:58.870Z,22.7
2022-09-05T08:46:50.586Z,22.7
2022-09-05T08:47:58.037Z,22.7
2022-09-05T08:49:21.467Z,22.9
2022-09-05T08:51:10.794Z,22.9
2022-09-05T08:52:13.619Z,22.9
2022-09-05T08:53:47.451Z,22.9
2022-09-05T08:55:08.123Z,22.9
2022-09-05T08:56:10.911Z,22.9
2022-09-05T08:57:23.126Z,22.9
2022-09-05T08:58:25.915Z,23
2022-09-05T08:59:35.169Z,22.9
2022-09-05T09:00:38.843Z,22.9
2022-09-05T09:02:49.176Z,22.9
2022-09-05T09:03:53.402Z,22.9
2022-09-05T09:05:03.819Z,22.9
2022-09-05T09:06:16.680Z,22.9
2022-09-05T09:07:53.032Z,22.9
2022-09-05T09:09:05.240Z,22.9
2022-09-05T09:10:09.060Z,22.9
2022-09-05T09:11:11.863Z,23
2022-09-05T09:12:15.014Z,22.9
2022-09-05T09:13:18.453Z,22.9
2022-09-05T09:14:32.185Z,23
2022-09-05T09:15:34.704Z,23
2022-09-05T09:16:38.433Z,23
2022-09-05T09:17:41.293Z,23
2022-09-05T09:18:44.089Z,23
2022-09-05T09:19:47.042Z,23
2022-09-05T09:20:49.076Z,23
2022-09-05T09:21:52.511Z,23
2022-09-05T09:22:55.455Z,23
2022-09-05T09:23:58.880Z,23.1
2022-09-05T09:25:21.136Z,23.1
2022-09-05T09:26:35.928Z,23.1
2022-09-05T09:28:52.382Z,23.1
2022-09-05T09:29:55.176Z,23.1
2022-09-05T09:30:58.707Z,23.2
2022-09-05T09:32:01.967Z,23.2
2022-09-05T09:33:04.557Z,23.2
2022-09-05T09:34:06.777Z,23.2
2022-09-05T09:35:10.007Z,23.2
2022-09-05T09:36:12.650Z,23.3
2022-09-05T09:37:15.500Z,23.3
2022-09-05T09:39:40.429Z,23.3
2022-09-05T09:41:03.310Z,23.3
2022-09-05T09:42:05.621Z,23.4
2022-09-05T09:43:08.365Z,23.4
2022-09-05T09:44:12.084Z,23.4
2022-09-05T09:45:30.324Z,23.4
2022-09-05T09:46:33.276Z,23.5
2022-09-05T09:47:42.080Z,23.5
2022-09-05T09:48:44.661Z,23.5
2022-09-05T09:49:47.519Z,23.5
2022-09-05T09:51:01.158Z,23.6
2022-09-05T09:52:04.110Z,23.6
2022-09-05T09:53:07.052Z,23.6
2022-09-05T09:54:10.190Z,23.6
2022-09-05T09:55:22.102Z,23.6
2022-09-05T09:56:31.630Z,23.6
2022-09-05T09:57:34.799Z,23.6
2022-09-05T09:58:38.315Z,23.7
2022-09-05T09:59:55.840Z,23.7
2022-09-05T10:00:59.489Z,23.7
2022-09-05T10:10:41.430Z,23.8
2022-09-05T10:13:09.745Z,23.9
2022-09-05T10:14:51.484Z,24.5
2022-09-05T10:15:54.837Z,24.6
2022-09-05T10:17:01.601Z,24.7
2022-09-05T10:18:09.437Z,24.7
2022-09-05T10:19:12.995Z,24.8
2022-09-05T10:20:16.318Z,24.8
2022-09-05T10:21:19.493Z,24.9
2022-09-05T10:22:38.935Z,24.9
2022-09-05T10:23:45.223Z,25
2022-09-05T10:24:48.091Z,25
2022-09-05T10:25:50.778Z,25
2022-09-05T10:26:53.566Z,25.1
2022-09-05T10:27:56.860Z,25.1
2022-09-05T10:29:38.926Z,25.1
2022-09-05T10:35:22.108Z,25.2
2022-09-05T10:36:30.489Z,25.2
2022-09-05T10:37:33.485Z,25.3
2022-09-05T10:38:38.219Z,25.3
2022-09-05T10:39:41.463Z,25.4
2022-09-05T10:41:23.691Z,25.4
2022-09-05T10:42:27.042Z,25.5
2022-09-05T10:43:29.628Z,25.5
2022-09-05T10:44:32.795Z,25.5
2022-09-05T10:45:39.763Z,25.6
2022-09-05T10:46:53.071Z,25.7
2022-09-05T10:48:14.196Z,25.8
2022-09-05T10:49:17.534Z,25.9
2022-09-05T10:50:20.986Z,26.1
2022-09-05T10:51:28.889Z,26.2
2022-09-05T10:52:32.047Z,26.3
2022-09-05T10:53:40.722Z,26.4
2022-09-05T10:54:44.139Z,26.5
2022-09-05T10:55:52.653Z,26.6
2022-09-05T10:56:55.522Z,26.7
2022-09-05T10:57:58.672Z,26.9
2022-09-05T11:02:41.114Z,26.9
2022-09-05T11:04:01.033Z,27
2022-09-05T11:05:04.532Z,27.5
2022-09-05T11:06:09.904Z,27.6
2022-09-05T11:07:12.706Z,27.7
2022-09-05T11:08:15.380Z,27.8
2022-09-05T11:09:18.576Z,27.8
2022-09-05T11:10:21.737Z,27.8
2022-09-05T11:11:36.004Z,27.9
2022-09-05T11:12:38.894Z,27.9
2022-09-05T11:13:41.426Z,27.9
2022-09-05T11:14:44.573Z,27.9
2022-09-05T11:16:11.527Z,27.9
2022-09-05T11:17:17.177Z,27.8
2022-09-05T11:18:19.688Z,27.7
2022-09-05T11:19:59.090Z,27.7
2022-09-05T11:21:01.992Z,27.6
2022-09-05T11:22:24.996Z,27.5
2022-09-05T11:23:27.773Z,27.4
2022-09-05T11:24:33.311Z,27.4
2022-09-05T11:25:41.859Z,27.3
2022-09-05T11:27:25.799Z,27.3
2022-09-05T11:28:29.275Z,27.4
2022-09-05T11:29:35.123Z,27.5
2022-09-05T11:30:39.329Z,27.6
2022-09-05T11:40:32.719Z,27.7
2022-09-05T11:42:18.856Z,27.8
2022-09-05T11:43:22.020Z,28.4
2022-09-05T11:44:27.593Z,28.5
2022-09-05T11:45:30.691Z,28.6
2022-09-05T11:46:34.058Z,28.8
2022-09-05T11:47:45.168Z,28.9
2022-09-05T11:48:54.416Z,29
2022-09-05T11:49:58.167Z,29.2
2022-09-05T11:51:00.882Z,29.3
2022-09-05T11:52:04.306Z,29.4
2022-09-05T11:53:06.966Z,29.6
2022-09-05T11:54:10.389Z,29.6
2022-09-05T11:55:22.297Z,29.8
2022-09-05T11:56:29.404Z,29.8
2022-09-05T11:57:36.016Z,29.8
2022-09-05T11:58:47.131Z,29.9
2022-09-05T12:00:34.661Z,29.9
2022-09-05T12:01:44.906Z,29.9
2022-09-05T12:02:52.467Z,29.8
2022-09-05T12:42:11.071Z,29.8
2022-09-05T12:45:47.153Z,29.7
2022-09-05T12:46:53.229Z,30
2022-09-05T12:47:59.024Z,30
2022-09-05T12:49:08.225Z,30
2022-09-05T12:50:16.393Z,30
2022-09-05T12:51:48.103Z,29.9
2022-09-05T12:52:51.463Z,29.9
2022-09-05T12:53:54.633Z,29.9
2022-09-05T12:54:58.019Z,29.9
2022-09-05T13:03:25.197Z,29.8
2022-09-05T13:05:28.562Z,29.7
2022-09-05T13:06:32.449Z,29.4
2022-09-05T13:07:38.340Z,29.4
2022-09-05T13:08:40.932Z,29.3
2022-09-05T13:16:36.625Z,29.3
2022-09-05T13:17:45.423Z,28.9
2022-09-05T13:18:48.578Z,28.8
2022-09-05T13:19:52.430Z,28.7
2022-09-05T13:20:55.937Z,28.7
2022-09-05T13:21:59.020Z,28.6
2022-09-05T13:23:02.173Z,28.5
2022-09-05T13:24:05.244Z,28.5
2022-09-05T13:25:07.846Z,28.4
2022-09-05T13:26:10.931Z,28.3
2022-09-05T13:27:14.199Z,28.3
2022-09-05T13:28:17.194Z,28.2
2022-09-05T13:29:19.455Z,28.2
2022-09-05T13:38:47.959Z,28.1
2022-09-05T13:39:59.291Z,28.1
2022-09-05T13:41:02.801Z,28
2022-09-05T13:42:05.746Z,28.1
2022-09-05T13:43:08.905Z,28.1
2022-09-05T13:44:28.832Z,28.2
2022-09-05T13:45:32.782Z,28.2
2022-09-05T13:46:41.757Z,28.2
2022-09-05T13:47:44.644Z,28.3
2022-09-05T13:49:30.016Z,28.3
2022-09-05T13:50:36.001Z,28.4
2022-09-05T13:51:38.872Z,28.4
2022-09-05T13:52:42.014Z,28.5
2022-09-05T13:53:44.873Z,28.6
2022-09-05T13:54:52.172Z,28.6
2022-09-05T13:56:04.027Z,28.6
2022-09-05T13:57:07.100Z,28.7
2022-09-05T13:58:09.695Z,28.7
2022-09-05T13:59:12.016Z,28.8
2022-09-05T14:00:29.149Z,28.8
2022-09-05T14:01:32.237Z,28.8
2022-09-05T14:03:36.110Z,28.8
2022-09-05T14:05:21.146Z,28.9
2022-09-05T14:06:49.325Z,28.9
2022-09-05T14:07:52.715Z,28.9
2022-09-05T14:09:41.800Z,28.9
2022-09-05T14:10:44.876Z,28.9
2022-09-05T14:11:47.394Z,29
2022-09-05T14:13:01.116Z,28.9
2022-09-05T14:14:11.871Z,28.9
2022-09-05T14:15:15.432Z,29
2022-09-05T14:16:17.523Z,28.9
2022-09-05T14:17:52.548Z,29
2022-09-05T14:18:56.991Z,29
2022-09-05T14:19:59.764Z,29.1
2022-09-05T14:21:11.152Z,29.1
2022-09-05T14:22:23.405Z,29.2
2022-09-05T14:23:26.937Z,29.3
2022-09-05T14:24:29.712Z,29.3
2022-09-05T14:25:32.304Z,29.3
2022-09-05T14:26:35.775Z,29.3
2022-09-05T14:27:39.468Z,29.3
2022-09-05T14:28:47.247Z,29.3
2022-09-05T14:29:52.202Z,29.3
2022-09-05T14:38:09.910Z,29.4
2022-09-05T14:39:31.746Z,29.5
2022-09-05T14:40:35.024Z,29.8
2022-09-05T14:41:38.196Z,29.8
2022-09-05T14:43:12.567Z,29.8
2022-09-05T14:44:16.617Z,29.9
2022-09-05T14:45:19.578Z,29.9
2022-09-05T14:46:22.835Z,29.9
2022-09-05T14:47:37.085Z,29.9
2022-09-05T14:48:40.296Z,30
2022-09-05T14:49:55.930Z,30
2022-09-05T14:51:00.681Z,30
2022-09-05T14:52:03.546Z,30
2022-09-05T14:54:05.918Z,30.1
2022-09-05T14:55:23.741Z,30.1
2022-09-05T15:03:03.430Z,30.1
2022-09-05T15:04:44.885Z,30.2
2022-09-05T15:05:47.619Z,30.2
2022-09-05T15:06:50.321Z,30.1
2022-09-05T15:07:59.342Z,30
2022-09-05T15:12:49.436Z,29.9
2022-09-05T15:14:04.216Z,29.8
2022-09-05T15:15:06.996Z,29.3
2022-09-05T15:16:09.859Z,29.2
2022-09-05T15:17:19.191Z,29.1
2022-09-05T15:18:22.475Z,29.1
2022-09-05T15:19:25.937Z,28.9
2022-09-05T15:20:28.880Z,28.8
2022-09-05T15:21:36.089Z,28.8
2022-09-05T15:22:39.404Z,28.7
2022-09-05T15:23:47.562Z,28.7
2022-09-05T15:24:59.696Z,28.6
2022-09-05T15:26:27.379Z,28.6
2022-09-05T15:27:30.230Z,28.6
2022-09-05T15:28:33.372Z,28.6
2022-09-05T15:29:35.977Z,28.5
2022-09-05T15:30:38.381Z,28.5
2022-09-05T15:31:41.287Z,28.4
2022-09-05T15:32:51.042Z,28.3
2022-09-05T15:33:54.402Z,28.2
2022-09-05T15:34:57.850Z,28.2
2022-09-05T15:36:00.991Z,28
2022-09-05T15:37:23.048Z,28
2022-09-05T15:38:26.786Z,27.9
2022-09-05T15:39:30.456Z,27.8
2022-09-05T15:40:33.820Z,27.7
2022-09-05T15:41:44.321Z,27.7
2022-09-05T15:42:47.754Z,27.6
2022-09-05T15:43:50.891Z,27.6
2022-09-05T15:45:11.299Z,27.5
2022-09-05T15:46:14.552Z,27.4
2022-09-05T15:47:17.484Z,27.3
2022-09-05T15:48:20.774Z,27.2
2022-09-05T15:49:24.210Z,27.2
2022-09-05T15:50:27.372Z,27.1
2022-09-05T15:51:30.255Z,27.1
2022-09-05T15:52:35.379Z,27.1
2022-09-05T15:53:38.724Z,27
2022-09-05T15:54:42.361Z,27
2022-09-05T15:56:01.642Z,26.9
2022-09-05T15:57:07.453Z,26.9
2022-09-05T15:58:09.964Z,26.8
2022-09-05T15:59:13.029Z,26.8
2022-09-05T16:00:16.542Z,26.7
2022-09-05T16:02:01.627Z,26.7
2022-09-05T16:11:04.402Z,26.7
2022-09-05T16:13:54.654Z,26.6
2022-09-05T16:23:42.277Z,26.4
2022-09-05T16:25:01.390Z,26.5
2022-09-05T16:26:04.489Z,26.7
2022-09-05T16:27:07.210Z,26.6
2022-09-05T16:28:10.089Z,26.6
2022-09-05T16:29:12.245Z,26.5
2022-09-05T16:30:16.819Z,26.4
2022-09-05T16:31:20.166Z,26.4
2022-09-05T16:32:23.414Z,26.3
2022-09-05T16:33:26.952Z,26.2
2022-09-05T16:34:30.480Z,26.2
2022-09-05T16:35:33.283Z,26.2
2022-09-05T16:36:43.557Z,26.1
2022-09-05T16:38:12.044Z,26.1
2022-09-05T16:39:14.762Z,26
2022-09-05T16:40:17.830Z,26
2022-09-05T16:41:25.266Z,25.9
2022-09-05T16:42:48.256Z,25.9
2022-09-05T16:43:51.260Z,25.9
2022-09-05T16:44:53.393Z,25.8
2022-09-05T16:45:56.427Z,25.8
2022-09-05T16:46:59.846Z,25.8
2022-09-05T16:48:02.723Z,25.7
2022-09-05T16:49:13.087Z,25.7
2022-09-05T16:50:24.408Z,25.7
2022-09-05T16:51:37.743Z,25.7
2022-09-05T16:52:56.649Z,25.6
2022-09-05T16:54:00.585Z,25.6
2022-09-05T16:55:03.101Z,25.5
2022-09-05T16:56:05.824Z,25.5
2022-09-05T16:57:08.699Z,25.5
2022-09-05T16:58:15.384Z,25.5
2022-09-05T16:59:19.084Z,25.4
2022-09-05T17:00:21.951Z,25.4
2022-09-05T17:01:25.326Z,25.3
2022-09-05T17:02:28.872Z,25.3
2022-09-05T17:03:32.154Z,25.3
2022-09-05T17:04:35.130Z,25.2
2022-09-05T17:05:38.850Z,25.2
2022-09-05T17:06:46.121Z,25.2
2022-09-05T17:07:49.263Z,25.2
2022-09-05T17:09:13.829Z,25.2
2022-09-05T17:10:17.728Z,25.1
2022-09-05T17:11:32.406Z,25.1
2022-09-05T17:13:04.472Z,25.1
2022-09-05T17:14:07.339Z,25
2022-09-05T17:15:10.312Z,25
2022-09-05T17:16:13.550Z,25
2022-09-05T17:18:30.076Z,24.9
2022-09-05T17:20:08.241Z,24.9
2022-09-05T17:21:11.455Z,24.8
2022-09-05T17:31:10.775Z,24.8
2022-09-05T17:33:06.020Z,24.8
2022-09-05T17:34:09.366Z,24.5
2022-09-05T17:35:19.160Z,24.5
2022-09-05T17:36:21.326Z,24.5
2022-09-05T17:37:44.237Z,24.5
2022-09-05T17:38:49.027Z,24.5
2022-09-05T17:39:52.399Z,24.4
2022-09-05T17:40:55.816Z,24.4
2022-09-05T17:41:58.337Z,24.4
2022-09-05T17:43:01.412Z,24.4
2022-09-05T17:44:04.358Z,24.4
2022-09-05T17:45:07.227Z,24.3
2022-09-05T17:46:10.539Z,24.3
2022-09-05T17:47:16.084Z,24.3
2022-09-05T17:48:19.241Z,24.3
2022-09-05T17:49:22.415Z,24.2
2022-09-05T17:50:34.163Z,24.2
2022-09-05T17:51:37.233Z,24.2
2022-09-05T17:52:39.660Z,24.2
2022-09-05T17:53:42.482Z,24.2
2022-09-05T17:54:50.962Z,24.1
2022-09-05T17:55:54.515Z,24.1
2022-09-05T17:56:58.349Z,24.1
2022-09-05T17:58:00.914Z,24.1
2022-09-05T17:59:03.792Z,24.1
2022-09-05T18:00:13.416Z,24.1
2022-09-05T18:01:16.469Z,24.1
2022-09-05T18:02:20.198Z,24
2022-09-05T18:03:24.053Z,24
2022-09-05T18:04:26.647Z,24
2022-09-05T18:05:29.714Z,24
2022-09-05T18:06:32.784Z,24
2022-09-05T18:07:35.630Z,23.9
2022-09-05T18:08:45.679Z,23.9
2022-09-05T18:31:45.238Z,23.9
2022-09-05T18:33:57.601Z,23.3
2022-09-05T18:35:01.124Z,23.3
2022-09-05T18:36:07.288Z,23.3
2022-09-05T18:37:10.897Z,23.2
2022-09-05T18:38:52.859Z,23.2
2022-09-05T18:39:56.950Z,23.2
2022-09-05T18:40:59.562Z,23.2
2022-09-05T18:42:35.591Z,23.2
2022-09-05T18:43:40.008Z,23.1
2022-09-05T18:45:34.746Z,23.1
2022-09-05T18:46:41.462Z,23.1
2022-09-05T18:48:00.204Z,23
2022-09-05T18:50:28.983Z,23
2022-09-05T18:51:37.411Z,23
2022-09-05T18:52:40.546Z,22.9
2022-09-05T18:53:47.957Z,22.9
2022-09-05T18:56:21.340Z,22.8
2022-09-05T18:57:29.862Z,22.8
2022-09-05T18:58:52.621Z,22.7
2022-09-05T19:00:12.672Z,22.6
2022-09-05T19:01:16.926Z,22.6
2022-09-05T19:02:59.750Z,22.6
2022-09-05T19:04:08.233Z,22.5
2022-09-05T19:05:47.725Z,22.5
2022-09-05T19:06:50.513Z,22.4
2022-09-05T19:08:00.623Z,22.4
2022-09-05T19:09:04.066Z,22.4
2022-09-05T19:10:37.510Z,22.4
2022-09-05T19:11:54.483Z,22.3
2022-09-05T19:12:59.406Z,22.3
2022-09-05T19:14:29.840Z,22.3
2022-09-05T19:15:35.821Z,22.2
2022-09-05T19:16:49.848Z,22.2
2022-09-05T19:17:53.941Z,22.2
2022-09-05T19:19:39.794Z,22.2
2022-09-05T19:20:43.356Z,22.1
2022-09-05T19:22:02.464Z,22.1
2022-09-05T19:24:16.526Z,22
2022-09-05T19:25:23.588Z,21.9
2022-09-05T19:26:33.848Z,21.9
2022-09-05T19:37:44.917Z,21.9
2022-09-05T19:48:08.740Z,21.8
2022-09-05T19:49:15.823Z,21.7
2022-09-05T19:50:18.901Z,21.5
2022-09-05T19:51:27.107Z,21.5
2022-09-05T19:52:39.463Z,21.5
2022-09-05T19:53:44.030Z,21.5
2022-09-05T19:54:46.462Z,21.4
2022-09-05T19:55:49.658Z,21.4